createdAt,value
2022-08-22T03:50:10.802Z,10.38
2022-08-22T03:51:10.781Z,10.39
2022-08-22T03:52:10.520Z,10.44
2022-08-22T03:53:21.458Z,10.38
2022-08-22T03:54:10.990Z,10.32
2022-08-22T03:55:10.732Z,10.32
2022-08-22T03:56:10.711Z,10.38
2022-08-22T03:57:10.704Z,10.39
2022-08-22T03:58:30.029Z,10.38
2022-08-22T03:59:14.789Z,10.42
2022-08-22T04:00:10.656Z,10.44
2022-08-22T04:01:10.951Z,10.44
2022-08-22T04:02:47.500Z,10.44
2022-08-22T04:03:10.627Z,10.44
2022-08-22T04:04:10.865Z,10.46
2022-08-22T04:05:13.602Z,10.52
2022-08-22T04:06:17.916Z,10.41
2022-08-22T04:07:34.606Z,10.47
2022-08-22T04:08:15.539Z,10.49
2022-08-22T04:09:10.561Z,10.44
2022-08-22T04:10:10.307Z,10.44
2022-08-22T04:11:10.533Z,10.44
2022-08-22T04:12:10.521Z,10.44
2022-08-22T04:13:10.521Z,10.47
2022-08-22T04:14:10.748Z,10.41
2022-08-22T04:15:10.493Z,10.44
2022-08-22T04:16:10.482Z,10.49
2022-08-22T04:17:10.729Z,10.49
2022-08-22T04:18:10.793Z,10.44
2022-08-22T04:19:12.917Z,10.52
2022-08-22T04:20:10.440Z,10.52
2022-08-22T04:21:10.180Z,10.47
2022-08-22T04:22:10.661Z,10.52
2022-08-22T04:23:10.405Z,10.52
2022-08-22T04:24:10.382Z,10.54
2022-08-22T04:25:12.684Z,10.54
2022-08-22T04:26:17.066Z,10.49
2022-08-22T04:27:10.096Z,10.52
2022-08-22T04:28:10.085Z,10.49
2022-08-22T04:29:10.329Z,10.55
2022-08-22T04:30:10.328Z,10.58
2022-08-22T04:31:10.309Z,10.59
2022-08-22T04:32:14.724Z,10.58
2022-08-22T04:33:10.297Z,10.67
2022-08-22T04:34:10.273Z,10.69
2022-08-22T04:35:10.015Z,10.66
2022-08-22T04:36:10.253Z,10.63
2022-08-22T04:37:10.501Z,10.72
2022-08-22T04:38:11.418Z,10.66
2022-08-22T04:39:10.223Z,10.77
2022-08-22T04:40:10.500Z,10.73
2022-08-22T04:41:10.450Z,10.76
2022-08-22T04:42:36.129Z,10.8
2022-08-22T04:43:10.173Z,10.85
2022-08-22T04:44:10.163Z,10.9
2022-08-22T04:45:10.811Z,10.91
2022-08-22T04:46:10.395Z,10.98
2022-08-22T04:47:10.383Z,10.98
2022-08-22T04:48:10.122Z,10.88
2022-08-22T04:49:10.105Z,10.91
2022-08-22T04:50:10.118Z,10.88
2022-08-22T04:51:10.179Z,10.98
2022-08-22T04:52:10.329Z,10.98
2022-08-22T04:53:10.313Z,11.02
2022-08-22T04:54:10.139Z,11.08
2022-08-22T04:55:10.298Z,11.02
2022-08-22T04:56:12.327Z,11.02
2022-08-22T04:57:10.015Z,11.05
2022-08-22T04:58:11.100Z,11.02
2022-08-22T04:59:10.000Z,11.1
2022-08-22T05:00:09.991Z,11.03
2022-08-22T05:01:09.971Z,11.13
2022-08-22T05:02:09.925Z,11.02
2022-08-22T05:03:09.701Z,11.08
2022-08-22T05:04:10.197Z,11.02
2022-08-22T05:05:18.089Z,11.15
2022-08-22T05:06:10.178Z,11.06
2022-08-22T05:07:10.163Z,11.02
2022-08-22T05:08:14.027Z,11
2022-08-22T05:09:14.197Z,11.15
2022-08-22T05:10:16.844Z,11.15
2022-08-22T05:11:09.612Z,11.05
2022-08-22T05:12:10.108Z,11.18
2022-08-22T05:13:10.103Z,11.09
2022-08-22T05:14:10.088Z,11.08
2022-08-22T05:15:12.220Z,11.12
2022-08-22T05:16:09.581Z,11.13
2022-08-22T05:17:10.053Z,11.1
2022-08-22T05:18:10.067Z,11.06
2022-08-22T05:19:13.176Z,11.09
2022-08-22T05:20:09.785Z,11.09
2022-08-22T05:21:16.263Z,11.12
2022-08-22T05:22:09.750Z,11.12
2022-08-22T05:23:19.803Z,11.12
2022-08-22T05:24:09.736Z,11.18
2022-08-22T05:25:09.715Z,11.24
2022-08-22T05:26:10.599Z,11.24
2022-08-22T05:27:09.953Z,11.38
2022-08-22T05:28:09.689Z,11.26
2022-08-22T05:29:09.675Z,11.3
2022-08-22T05:30:09.679Z,11.34
2022-08-22T05:31:09.907Z,11.42
2022-08-22T05:32:09.902Z,11.43
2022-08-22T05:33:09.633Z,11.39
2022-08-22T05:34:09.874Z,11.38
2022-08-22T05:35:09.622Z,11.57
2022-08-22T05:36:09.350Z,11.53
2022-08-22T05:37:12.834Z,11.57
2022-08-22T05:38:09.582Z,11.61
2022-08-22T05:39:09.319Z,11.67
2022-08-22T05:40:09.839Z,11.7
2022-08-22T05:41:09.592Z,11.61
2022-08-22T05:42:09.553Z,11.75
2022-08-22T05:43:09.543Z,11.78
2022-08-22T05:44:09.775Z,11.76
2022-08-22T05:45:14.513Z,11.88
2022-08-22T05:46:09.757Z,11.97
2022-08-22T05:47:09.517Z,11.97
2022-08-22T05:48:09.741Z,12.03
2022-08-22T05:49:09.471Z,12.05
2022-08-22T05:50:09.715Z,12.15
2022-08-22T05:51:09.900Z,12.19
2022-08-22T05:52:11.218Z,12.34
2022-08-22T05:53:10.035Z,12.31
2022-08-22T05:54:09.418Z,12.25
2022-08-22T05:55:09.420Z,12.43
2022-08-22T05:56:09.407Z,12.53
2022-08-22T05:57:12.456Z,12.65
2022-08-22T05:58:09.385Z,12.69
2022-08-22T05:59:13.148Z,12.78
2022-08-22T06:00:09.467Z,12.88
2022-08-22T06:01:09.374Z,12.96
2022-08-22T06:02:09.623Z,13.13
2022-08-22T06:03:09.086Z,13.2
2022-08-22T06:04:09.385Z,13.24
2022-08-22T06:05:14.510Z,13.39
2022-08-22T06:06:09.324Z,13.5
2022-08-22T06:07:09.040Z,13.55
2022-08-22T06:08:09.285Z,13.63
2022-08-22T06:09:09.035Z,13.7
2022-08-22T06:10:09.276Z,13.75
2022-08-22T06:11:09.271Z,13.86
2022-08-22T06:12:12.633Z,14.01
2022-08-22T06:13:15.970Z,14.13
2022-08-22T06:14:09.723Z,14.12
2022-08-22T06:15:17.127Z,14.3
2022-08-22T06:16:11.654Z,14.34
2022-08-22T06:17:09.202Z,14.44
2022-08-22T06:18:09.206Z,14.52
2022-08-22T06:19:24.123Z,14.48
2022-08-22T06:20:09.173Z,14.66
2022-08-22T06:21:09.433Z,14.69
2022-08-22T06:22:10.351Z,14.86
2022-08-22T06:23:09.405Z,14.89
2022-08-22T06:24:09.146Z,14.95
2022-08-22T06:25:09.394Z,15.04
2022-08-22T06:26:23.575Z,15.08
2022-08-22T06:27:08.857Z,15.18
2022-08-22T06:28:09.121Z,15.23
2022-08-22T06:29:08.845Z,15.27
2022-08-22T06:30:08.842Z,15.33
2022-08-22T06:31:09.355Z,15.31
2022-08-22T06:32:09.327Z,15.41
2022-08-22T06:33:14.720Z,15.45
2022-08-22T06:34:08.802Z,15.55
2022-08-22T06:35:10.893Z,15.52
2022-08-22T06:36:08.792Z,15.59
2022-08-22T06:37:09.032Z,15.7
2022-08-22T06:38:09.029Z,15.75
2022-08-22T06:39:09.019Z,15.74
2022-08-22T06:40:09.260Z,15.91
2022-08-22T06:41:09.275Z,15.83
2022-08-22T06:42:11.193Z,15.91
2022-08-22T06:43:08.732Z,16.02
2022-08-22T06:44:08.733Z,16.04
2022-08-22T06:45:08.984Z,16.16
2022-08-22T06:46:08.968Z,16.25
2022-08-22T06:47:08.958Z,16.29
2022-08-22T06:48:10.079Z,16.42
2022-08-22T06:49:08.944Z,16.69
2022-08-22T06:50:15.731Z,16.9
2022-08-22T06:51:09.192Z,17.09
2022-08-22T06:52:09.178Z,17.47
2022-08-22T06:53:08.913Z,17.86
2022-08-22T06:54:08.943Z,18.32
2022-08-22T06:55:09.163Z,18.91
2022-08-22T06:56:11.130Z,19.47
2022-08-22T06:57:08.895Z,19.74
2022-08-22T06:58:09.251Z,20.01
2022-08-22T06:59:08.883Z,20.34
2022-08-22T07:00:08.877Z,20.71
2022-08-22T07:01:16.286Z,21.12
2022-08-22T07:02:08.875Z,21.25
2022-08-22T07:03:09.131Z,21.25
2022-08-22T07:04:09.110Z,21.3
2022-08-22T07:05:09.109Z,21.28
2022-08-22T07:06:09.115Z,21.41
2022-08-22T07:07:08.841Z,21.41
2022-08-22T07:08:09.092Z,21.37
2022-08-22T07:09:11.243Z,21.48
2022-08-22T07:10:08.822Z,21.86
2022-08-22T07:11:08.837Z,22.18
2022-08-22T07:12:09.073Z,22.67
2022-08-22T07:13:08.808Z,22.99
2022-08-22T07:14:08.554Z,23.24
2022-08-22T07:15:09.059Z,23.4
2022-08-22T07:16:09.724Z,23.5
2022-08-22T07:17:09.720Z,23.81
2022-08-22T07:18:09.462Z,24.07
2022-08-22T07:19:09.466Z,24.33
2022-08-22T07:20:09.711Z,24.58
2022-08-22T07:21:11.451Z,24.83
2022-08-22T07:22:09.714Z,24.7
2022-08-22T07:23:09.968Z,24.71
2022-08-22T07:24:09.953Z,24.87
2022-08-22T07:25:09.705Z,25.09
2022-08-22T07:26:09.694Z,25.27
2022-08-22T07:27:09.702Z,25.3
2022-08-22T07:28:18.066Z,25.34
2022-08-22T07:29:19.179Z,25.79
2022-08-22T07:30:13.160Z,26.31
2022-08-22T07:31:11.350Z,26.64
2022-08-22T07:32:09.956Z,26.91
2022-08-22T07:33:31.019Z,26.93
2022-08-22T07:34:09.983Z,26.82
2022-08-22T07:35:09.942Z,26.53
2022-08-22T07:36:09.942Z,26.6
2022-08-22T07:37:09.683Z,26.45
2022-08-22T07:38:11.888Z,26.31
2022-08-22T07:39:15.834Z,26.06
2022-08-22T07:40:10.196Z,25.78
2022-08-22T07:41:09.672Z,25.64
2022-08-22T07:42:09.750Z,25.49
2022-08-22T07:43:09.428Z,25.44
2022-08-22T07:44:09.416Z,25.38
2022-08-22T07:45:09.933Z,25.15
2022-08-22T07:46:10.593Z,24.86
2022-08-22T07:47:09.913Z,24.52
2022-08-22T07:48:09.669Z,24.24
2022-08-22T07:49:14.564Z,23.81
2022-08-22T07:50:09.657Z,23.56
2022-08-22T07:51:09.917Z,23.28
2022-08-22T07:52:10.385Z,22.99
2022-08-22T07:53:09.927Z,22.73
2022-08-22T07:54:09.401Z,22.44
2022-08-22T07:55:09.400Z,22.23
2022-08-22T07:56:09.897Z,22.04
2022-08-22T07:57:09.907Z,21.7
2022-08-22T07:58:09.388Z,21.59
2022-08-22T07:59:16.981Z,21.43
2022-08-22T08:00:09.383Z,21.41
2022-08-22T08:01:09.808Z,21.23
2022-08-22T08:02:09.632Z,21.23
2022-08-22T08:03:09.775Z,21.15
2022-08-22T08:04:09.880Z,21
2022-08-22T08:05:09.374Z,21.01
2022-08-22T08:06:09.638Z,21.06
2022-08-22T08:07:09.878Z,21.08
2022-08-22T08:08:09.370Z,21
2022-08-22T08:09:09.616Z,20.98
2022-08-22T08:10:15.134Z,21.06
2022-08-22T08:11:09.615Z,21.16
2022-08-22T08:12:09.867Z,21.18
2022-08-22T08:13:09.353Z,21.19
2022-08-22T08:14:09.614Z,21.03
2022-08-22T08:15:09.604Z,20.98
2022-08-22T08:16:09.850Z,21.09
2022-08-22T08:17:09.857Z,21.11
2022-08-22T08:18:09.845Z,21.18
2022-08-22T08:19:09.857Z,21.22
2022-08-22T08:20:09.593Z,21.31
2022-08-22T08:21:09.354Z,21.28
2022-08-22T08:22:09.591Z,21.25
2022-08-22T08:23:09.584Z,21.28
2022-08-22T08:24:09.841Z,21.41
2022-08-22T08:25:09.318Z,21.4
2022-08-22T08:26:09.583Z,21.34
2022-08-22T08:27:09.317Z,21.46
2022-08-22T08:28:12.383Z,21.52
2022-08-22T08:29:09.562Z,21.61
2022-08-22T08:30:15.517Z,21.9
2022-08-22T08:31:09.815Z,21.93
2022-08-22T08:32:09.307Z,22.08
2022-08-22T08:33:30.335Z,22.09
2022-08-22T08:34:09.554Z,22.22
2022-08-22T08:35:12.431Z,22.29
2022-08-22T08:36:09.805Z,22.34
2022-08-22T08:37:09.793Z,22.38
2022-08-22T08:38:09.557Z,22.39
2022-08-22T08:39:09.551Z,22.31
2022-08-22T08:40:09.702Z,22.44
2022-08-22T08:41:09.278Z,22.52
2022-08-22T08:42:09.792Z,22.54
2022-08-22T08:43:14.870Z,22.46
2022-08-22T08:44:09.275Z,22.42
2022-08-22T08:45:09.527Z,22.41
2022-08-22T08:46:10.491Z,22.55
2022-08-22T08:47:09.520Z,22.57
2022-08-22T08:48:09.572Z,22.64
2022-08-22T08:49:11.067Z,22.64
2022-08-22T08:50:11.626Z,22.78
2022-08-22T08:51:11.383Z,22.78
2022-08-22T08:52:09.265Z,22.76
2022-08-22T08:53:10.212Z,22.7
2022-08-22T08:54:09.826Z,22.73
2022-08-22T08:55:27.052Z,22.86
2022-08-22T08:56:14.635Z,22.96
2022-08-22T09:40:29.781Z,22.22
2022-08-22T09:40:39.320Z,22.2
2022-08-22T09:41:39.117Z,22.22
2022-08-22T09:42:39.478Z,22.22
2022-08-22T09:43:48.502Z,22.22
2022-08-22T09:44:45.952Z,22.31
2022-08-22T09:45:40.001Z,22.29
2022-08-22T09:46:41.436Z,22.3
2022-08-22T09:47:43.858Z,22.31
2022-08-22T09:48:39.557Z,22.33
2022-08-22T09:49:41.389Z,22.36
2022-08-22T09:50:43.676Z,22.27
2022-08-22T09:51:39.543Z,22.36
2022-08-22T09:52:42.576Z,22.34
2022-08-22T09:53:39.032Z,22.31
2022-08-22T09:54:41.167Z,22.41
2022-08-22T09:55:41.718Z,22.34
2022-08-22T09:56:39.277Z,22.34
2022-08-22T09:57:39.583Z,22.42
2022-08-22T09:58:45.624Z,22.24
2022-08-22T09:59:40.680Z,22.16
2022-08-22T10:00:39.266Z,22.22
2022-08-22T10:01:44.555Z,22.14
2022-08-22T10:02:46.125Z,22.11
2022-08-22T10:03:41.603Z,22.05
2022-08-22T10:04:42.084Z,22.12
2022-08-22T10:05:48.037Z,22.09
2022-08-22T10:06:39.500Z,21.96
2022-08-22T10:07:39.896Z,22.07
2022-08-22T10:08:39.852Z,22.08
2022-08-22T10:09:39.683Z,22.04
2022-08-22T10:10:40.862Z,22.05
2022-08-22T10:11:45.610Z,22.12
2022-08-22T10:12:47.120Z,22.23
2022-08-22T10:13:39.582Z,22.29
2022-08-22T10:14:39.870Z,22.31
2022-08-22T10:15:39.488Z,22.31
2022-08-22T10:16:39.232Z,22.24
2022-08-22T10:17:45.565Z,22.33
2022-08-22T10:18:52.915Z,22.36
2022-08-22T10:19:40.514Z,22.41
2022-08-22T10:20:39.000Z,22.34
2022-08-22T10:21:39.629Z,22.38
2022-08-22T10:22:41.498Z,22.46
2022-08-22T10:23:39.862Z,22.54
2022-08-22T10:24:48.385Z,22.55
2022-08-22T10:25:44.188Z,22.51
2022-08-22T10:26:43.578Z,22.55
2022-08-22T10:27:39.545Z,22.66
2022-08-22T10:28:39.227Z,22.67
2022-08-22T10:29:39.097Z,22.76
2022-08-22T10:30:39.217Z,22.67
2022-08-22T10:32:04.855Z,22.48
2022-08-22T10:32:40.458Z,22.51
2022-08-22T10:33:42.160Z,22.54
2022-08-22T10:34:39.589Z,22.51
2022-08-22T10:35:39.560Z,22.51
2022-08-22T10:36:39.788Z,22.46
2022-08-22T10:37:48.284Z,22.57
2022-08-22T10:38:49.264Z,22.48
2022-08-22T10:39:39.219Z,22.57
2022-08-22T10:40:42.501Z,22.54
2022-08-22T10:41:40.250Z,22.44
2022-08-22T10:42:40.151Z,22.44
2022-08-22T10:43:42.922Z,22.44
2022-08-22T10:44:39.183Z,22.39
2022-08-22T10:45:41.290Z,22.46
2022-08-22T10:46:42.124Z,22.57
2022-08-22T10:47:39.185Z,22.57
2022-08-22T10:48:39.943Z,22.7
2022-08-22T10:49:39.355Z,22.7
2022-08-22T10:50:39.215Z,22.61
2022-08-22T10:51:42.448Z,22.73
2022-08-22T10:52:39.485Z,22.75
2022-08-22T10:53:39.436Z,22.78
2022-08-22T10:54:40.412Z,22.75
2022-08-22T10:55:39.158Z,22.88
2022-08-22T10:56:40.558Z,22.85
2022-08-22T10:57:39.410Z,22.99
2022-08-22T10:58:39.425Z,22.99
2022-08-22T10:59:41.419Z,22.96
2022-08-22T11:00:49.916Z,22.96
2022-08-22T11:01:45.298Z,23.01
2022-08-22T11:02:39.155Z,23.01
2022-08-22T11:03:42.332Z,23.03
2022-08-22T11:04:39.737Z,23
2022-08-22T11:05:39.290Z,22.99
2022-08-22T11:06:39.155Z,22.99
2022-08-22T11:07:41.866Z,23.14
2022-08-22T11:08:39.605Z,23.24
2022-08-22T11:09:41.373Z,23.45
2022-08-22T11:10:39.572Z,23.66
2022-08-22T11:11:39.751Z,23.81
2022-08-22T11:12:44.454Z,23.9
2022-08-22T11:13:44.490Z,24.12
2022-08-22T11:14:39.141Z,24.18
2022-08-22T11:15:39.700Z,24.15
2022-08-22T11:16:45.828Z,24.12
2022-08-22T11:17:55.982Z,23.97
2022-08-22T11:18:40.352Z,23.94
2022-08-22T11:19:38.884Z,23.77
2022-08-22T11:20:39.455Z,23.53
2022-08-22T11:21:38.925Z,23.44
2022-08-22T11:22:39.205Z,23.32
2022-08-22T11:23:39.304Z,23.34
2022-08-22T11:25:01.213Z,23.34
2022-08-22T11:25:43.382Z,23.24
2022-08-22T11:26:53.036Z,23.41
2022-08-22T11:27:44.519Z,23.32
2022-08-22T11:28:39.134Z,23.48
2022-08-22T11:29:41.140Z,23.44
2022-08-22T11:30:52.774Z,23.45
2022-08-22T11:31:51.762Z,23.42
2022-08-22T11:32:39.717Z,23.42
2022-08-22T11:33:52.283Z,23.41
2022-08-22T11:34:40.335Z,23.4
2022-08-22T11:35:40.775Z,23.34
2022-08-22T11:36:39.911Z,23.29
2022-08-22T11:37:51.323Z,23.18
2022-08-22T11:38:40.522Z,23.15
2022-08-22T11:39:40.103Z,23
2022-08-22T11:40:40.125Z,23.07
2022-08-22T11:41:41.556Z,22.96
2022-08-22T11:42:52.087Z,23.04
2022-08-22T11:43:39.849Z,23
2022-08-22T11:44:53.215Z,23.07
2022-08-22T11:45:42.544Z,23.04
2022-08-22T11:46:39.513Z,23.01
2022-08-22T11:47:39.644Z,23.09
2022-08-22T11:48:39.588Z,23.15
2022-08-22T11:49:40.842Z,23.24
2022-08-22T11:50:44.245Z,23.25
2022-08-22T11:51:39.840Z,23.4
2022-08-22T11:52:39.747Z,23.41
2022-08-22T11:53:39.572Z,23.4
2022-08-22T11:54:44.169Z,23.38
2022-08-22T11:55:39.797Z,23.4
2022-08-22T11:56:43.627Z,23.28
2022-08-22T11:57:41.716Z,23.25
2022-08-22T11:58:39.502Z,23.22
2022-08-22T11:59:45.421Z,23.29
2022-08-22T12:00:44.298Z,23.26
2022-08-22T12:01:40.362Z,23.29
2022-08-22T12:02:39.530Z,23.32
2022-08-22T12:03:41.802Z,23.42
2022-08-22T12:04:44.890Z,23.44
2022-08-22T12:05:39.861Z,23.45
2022-08-22T12:06:42.915Z,23.52
2022-08-22T12:07:39.624Z,23.55
2022-08-22T12:08:39.626Z,23.59
2022-08-22T12:09:40.165Z,23.66
2022-08-22T12:10:41.195Z,23.74
2022-08-22T12:11:39.133Z,23.74
2022-08-22T12:12:39.741Z,23.78
2022-08-22T12:13:40.352Z,23.64
2022-08-22T12:14:39.362Z,23.55
2022-08-22T12:15:42.771Z,23.45
2022-08-22T12:16:39.353Z,23.42
2022-08-22T12:18:04.492Z,23.42
2022-08-22T12:18:40.420Z,23.4
2022-08-22T12:20:14.584Z,23.35
2022-08-22T12:20:39.949Z,23.32
2022-08-22T12:21:42.913Z,23.25
2022-08-22T12:22:40.259Z,23.28
2022-08-22T12:23:54.428Z,23.28
2022-08-22T12:24:39.636Z,23.26
2022-08-22T12:25:46.610Z,23.24
2022-08-22T12:26:43.022Z,23.26
2022-08-22T12:27:40.415Z,23.4
2022-08-22T12:28:39.371Z,23.4
2022-08-22T12:29:49.354Z,23.32
2022-08-22T12:30:39.796Z,23.32
2022-08-22T12:31:40.498Z,23.34
2022-08-22T12:32:39.350Z,23.32
2022-08-22T12:33:39.407Z,23.09
2022-08-22T12:34:43.760Z,23.04
2022-08-22T12:35:39.601Z,23.06
2022-08-22T12:36:39.195Z,23
2022-08-22T12:37:56.592Z,23.15
2022-08-22T12:38:44.286Z,23.12
2022-08-22T12:39:43.556Z,23.04
2022-08-22T12:40:45.876Z,22.97
2022-08-22T12:41:39.824Z,22.89
2022-08-22T12:42:44.224Z,22.86
2022-08-22T12:43:46.822Z,22.84
2022-08-22T12:44:39.322Z,22.91
2022-08-22T12:45:42.705Z,22.79
2022-08-22T12:46:48.910Z,22.71
2022-08-22T12:47:44.546Z,22.75
2022-08-22T12:48:39.898Z,22.86
2022-08-22T12:49:39.835Z,23.03
2022-08-22T12:50:39.315Z,23.12
2022-08-22T12:51:41.898Z,23.28
2022-08-22T12:52:39.232Z,23.38
2022-08-22T12:53:40.742Z,23.38
2022-08-22T12:54:39.314Z,23.42
2022-08-22T12:55:40.587Z,23.44
2022-08-22T12:56:44.621Z,23.5
2022-08-22T12:57:39.904Z,23.45
2022-08-22T12:58:40.581Z,23.44
2022-08-22T12:59:39.054Z,23.57
2022-08-22T13:00:39.629Z,23.6
2022-08-22T13:01:44.819Z,23.47
2022-08-22T13:02:39.305Z,23.63
2022-08-22T13:03:39.045Z,23.7
2022-08-22T13:04:39.901Z,23.7
2022-08-22T13:05:45.650Z,23.77
2022-08-22T13:06:40.522Z,23.77
2022-08-22T13:07:39.535Z,23.66
2022-08-22T13:08:40.473Z,23.53
2022-08-22T13:09:39.594Z,23.45
2022-08-22T13:10:39.888Z,23.29
2022-08-22T13:11:39.297Z,23.37
2022-08-22T13:12:44.146Z,23.34
2022-08-22T13:13:43.240Z,23.21
2022-08-22T13:14:42.779Z,23.15
2022-08-22T13:15:44.241Z,22.99
2022-08-22T13:16:48.785Z,23.03
2022-08-22T13:17:42.015Z,23
2022-08-22T13:18:40.273Z,23.01
2022-08-22T13:19:39.542Z,22.97
2022-08-22T13:20:39.429Z,23.01
2022-08-22T13:21:41.281Z,23
2022-08-22T13:22:41.369Z,23.18
2022-08-22T13:23:46.074Z,23.19
2022-08-22T13:24:54.658Z,23.1
2022-08-22T13:25:39.295Z,23.19
2022-08-22T13:26:46.325Z,23.18
2022-08-22T13:27:39.283Z,23.12
2022-08-22T13:28:39.754Z,23.14
2022-08-22T13:29:47.083Z,22.99
2022-08-22T13:30:41.723Z,22.94
2022-08-22T13:31:39.022Z,22.92
2022-08-22T13:32:44.330Z,22.86
2022-08-22T13:33:39.759Z,22.76
2022-08-22T13:34:45.948Z,22.76
2022-08-22T13:35:51.637Z,22.78
2022-08-22T13:36:39.521Z,22.76
2022-08-22T13:37:39.413Z,22.76
2022-08-22T13:38:48.707Z,22.76
2022-08-22T13:39:39.437Z,22.73
2022-08-22T13:40:42.043Z,22.67
2022-08-22T13:41:46.362Z,22.71
2022-08-22T13:42:44.628Z,22.6
2022-08-22T13:43:39.676Z,22.59
2022-08-22T13:44:41.681Z,22.44
2022-08-22T13:45:39.002Z,22.46
2022-08-22T13:47:13.453Z,22.46
2022-08-22T13:47:42.210Z,22.49
2022-08-22T13:48:39.246Z,22.45
2022-08-22T13:49:39.266Z,22.45
2022-08-22T13:50:58.558Z,22.55
2022-08-22T13:51:40.940Z,22.55
2022-08-22T13:52:44.482Z,22.55
2022-08-22T13:53:39.248Z,22.49
2022-08-22T13:54:44.967Z,22.45
2022-08-22T13:55:42.943Z,22.57
2022-08-22T13:56:39.245Z,22.61
2022-08-22T13:57:40.851Z,22.52
2022-08-22T13:58:40.166Z,22.44
2022-08-22T14:00:06.447Z,22.42
2022-08-22T14:00:57.563Z,22.31
2022-08-22T14:01:39.811Z,22.34
2022-08-22T14:02:39.480Z,22.26
2022-08-22T14:03:41.170Z,22.23
2022-08-22T14:04:43.065Z,22.14
2022-08-22T14:05:38.967Z,22.07
2022-08-22T14:06:46.126Z,22.12
2022-08-22T14:07:39.686Z,22.05
2022-08-22T14:08:39.668Z,22.04
2022-08-22T14:09:39.479Z,22.07
2022-08-22T14:10:39.214Z,21.93
2022-08-22T14:11:39.218Z,21.93
2022-08-22T14:12:55.304Z,21.89
2022-08-22T14:13:41.801Z,21.77
2022-08-22T14:14:39.218Z,21.71
2022-08-22T14:15:53.451Z,21.58
2022-08-22T14:16:39.460Z,21.64
2022-08-22T14:17:51.043Z,21.56
2022-08-22T14:18:48.101Z,21.59
2022-08-22T14:20:01.962Z,21.59
2022-08-22T14:20:40.330Z,21.58
2022-08-22T14:21:45.597Z,21.58
2022-08-22T14:22:40.304Z,21.59
2022-08-22T14:23:39.703Z,21.46
2022-08-22T14:24:58.223Z,21.51
2022-08-22T14:25:41.236Z,21.52
2022-08-22T14:26:51.793Z,21.43
2022-08-22T14:27:42.076Z,21.33
2022-08-22T14:28:40.496Z,21.45
2022-08-22T14:29:43.327Z,21.37
2022-08-22T14:30:39.432Z,21.41
2022-08-22T14:31:39.428Z,21.43
2022-08-22T14:32:44.159Z,21.43
2022-08-22T14:33:42.999Z,21.41
2022-08-22T14:34:39.673Z,21.51
2022-08-22T14:35:42.707Z,21.45
2022-08-22T14:36:41.647Z,21.37
2022-08-22T14:37:43.193Z,21.37
2022-08-22T14:38:39.604Z,21.43
2022-08-22T14:39:45.238Z,21.3
2022-08-22T14:40:39.754Z,21.33
2022-08-22T14:42:06.143Z,21.28
2022-08-22T14:42:46.581Z,21.3
2022-08-22T14:43:44.864Z,21.23
2022-08-22T14:44:40.194Z,21.28
2022-08-22T14:45:41.983Z,21.21
2022-08-22T14:46:39.663Z,21.13
2022-08-22T14:48:36.450Z,21.19
2022-08-22T14:48:49.864Z,21.06
2022-08-22T14:49:49.405Z,21.04
2022-08-22T14:50:49.660Z,21
2022-08-22T14:51:53.296Z,21
2022-08-22T14:52:49.393Z,20.88
2022-08-22T14:53:49.408Z,20.86
2022-08-22T14:54:53.305Z,20.85
2022-08-22T14:55:55.502Z,20.78
2022-08-22T14:56:49.394Z,20.83
2022-08-22T14:57:50.070Z,20.82
2022-08-22T14:58:50.621Z,20.76
2022-08-22T14:59:52.569Z,20.76
2022-08-22T15:00:52.437Z,20.72
2022-08-22T15:01:55.557Z,20.66
2022-08-22T15:02:49.107Z,20.54
2022-08-22T15:03:50.433Z,20.68
2022-08-22T15:04:52.701Z,20.6
2022-08-22T15:05:50.088Z,20.56
2022-08-22T15:06:52.638Z,20.57
2022-08-22T15:07:51.711Z,20.53
2022-08-22T15:08:51.721Z,20.4
2022-08-22T15:09:50.682Z,20.44
2022-08-22T15:10:50.568Z,20.42
2022-08-22T15:11:51.608Z,20.38
2022-08-22T15:12:51.116Z,20.37
2022-08-22T15:13:50.903Z,20.41
2022-08-22T15:14:56.680Z,20.27
2022-08-22T15:16:09.513Z,20.32
2022-08-22T15:16:50.293Z,20.27
2022-08-22T15:17:55.494Z,20.26
2022-08-22T15:18:56.557Z,20.25
2022-08-22T15:19:54.517Z,20.23
2022-08-22T15:20:57.374Z,20.19
2022-08-22T15:21:50.305Z,20.22
2022-08-22T15:22:50.273Z,20.15
2022-08-22T15:23:52.076Z,20.27
2022-08-22T15:24:51.389Z,20.18
2022-08-22T15:25:52.390Z,20.12
2022-08-22T15:26:57.467Z,20.23
2022-08-22T15:27:53.239Z,20.23
2022-08-22T15:28:57.588Z,20.22
2022-08-22T15:29:51.097Z,20.26
2022-08-22T15:30:56.415Z,20.37
2022-08-22T15:31:51.473Z,20.22
2022-08-22T15:32:51.095Z,20.26
2022-08-22T15:33:51.559Z,20.25
2022-08-22T15:34:54.474Z,20.11
2022-08-22T15:35:51.039Z,20.19
2022-08-22T15:36:50.986Z,20.2
2022-08-22T15:37:53.483Z,20.2
2022-08-22T15:38:52.527Z,20.2
2022-08-22T15:39:50.593Z,20.16
2022-08-22T15:40:50.535Z,20.11
2022-08-22T15:41:50.690Z,20.16
2022-08-22T15:42:50.222Z,20.23
2022-08-22T15:43:50.517Z,20.2
2022-08-22T15:44:50.454Z,20.18
2022-08-22T15:45:50.797Z,20.15
2022-08-22T15:46:51.229Z,20.18
2022-08-22T15:47:49.927Z,20.22
2022-08-22T15:48:58.471Z,20.05
2022-08-22T15:49:55.098Z,20.04
2022-08-22T15:50:53.597Z,20.07
2022-08-22T15:51:52.534Z,20
2022-08-22T15:53:09.979Z,20.08
2022-08-22T15:53:53.102Z,20.04
2022-08-22T15:54:57.128Z,20.11
2022-08-22T15:55:51.642Z,19.97
2022-08-22T15:56:51.552Z,20
2022-08-22T15:57:55.112Z,19.97
2022-08-22T15:58:53.835Z,19.98
2022-08-22T15:59:58.276Z,19.95
2022-08-22T16:00:50.800Z,20
2022-08-22T16:01:55.541Z,19.87
2022-08-22T16:02:50.941Z,19.85
2022-08-22T16:03:50.140Z,19.9
2022-08-22T16:04:49.866Z,19.82
2022-08-22T16:05:55.853Z,19.95
2022-08-22T16:06:52.884Z,19.9
2022-08-22T16:07:50.112Z,19.83
2022-08-22T16:08:50.361Z,19.87
2022-08-22T16:09:50.110Z,19.89
2022-08-22T16:10:50.366Z,19.85
2022-08-22T16:11:50.094Z,19.85
2022-08-22T16:12:49.836Z,19.89
2022-08-22T16:13:50.359Z,19.85
2022-08-22T16:14:50.084Z,19.86
2022-08-22T16:15:56.801Z,19.87
2022-08-22T16:16:50.336Z,19.8
2022-08-22T16:17:55.709Z,19.86
2022-08-22T16:18:50.321Z,19.82
2022-08-22T16:19:50.060Z,19.82
2022-08-22T16:20:50.060Z,19.8
2022-08-22T16:21:50.057Z,19.74
2022-08-22T16:22:51.944Z,19.71
2022-08-22T16:23:52.114Z,19.75
2022-08-22T16:24:52.395Z,19.68
2022-08-22T16:25:49.781Z,19.7
2022-08-22T16:26:50.295Z,19.68
2022-08-22T16:27:49.780Z,19.7
2022-08-22T16:29:02.685Z,19.82
2022-08-22T16:29:50.283Z,19.78
2022-08-22T16:30:54.725Z,19.74
2022-08-22T16:31:50.012Z,19.82
2022-08-22T16:32:50.285Z,19.79
2022-08-22T16:33:49.759Z,19.74
2022-08-22T16:34:49.747Z,19.8
2022-08-22T16:35:50.256Z,19.78
2022-08-22T16:36:49.991Z,19.78
2022-08-22T16:37:50.241Z,19.72
2022-08-22T16:38:49.988Z,19.89
2022-08-22T16:39:50.182Z,19.85
2022-08-22T16:40:49.722Z,19.83
2022-08-22T16:41:50.226Z,19.78
2022-08-22T16:42:49.971Z,19.8
2022-08-22T16:43:59.296Z,19.78
2022-08-22T16:44:50.224Z,19.7
2022-08-22T16:45:49.709Z,19.63
2022-08-22T16:46:50.213Z,19.71
2022-08-22T16:48:01.069Z,19.7
2022-08-22T16:48:49.688Z,19.67
2022-08-22T16:49:49.949Z,19.63
2022-08-22T16:50:55.454Z,19.65
2022-08-22T16:51:49.930Z,19.63
2022-08-22T16:52:49.928Z,19.61
2022-08-22T16:53:50.682Z,19.57
2022-08-22T16:54:49.920Z,19.61
2022-08-22T16:55:50.176Z,19.5
2022-08-22T16:56:49.920Z,19.52
2022-08-22T16:58:10.355Z,19.46
2022-08-22T16:59:23.621Z,19.57
2022-08-22T16:59:50.170Z,19.52
2022-08-22T17:00:57.631Z,19.47
2022-08-22T17:01:50.144Z,19.49
2022-08-22T17:02:50.152Z,19.52
2022-08-22T17:03:49.895Z,19.4
2022-08-22T17:04:49.877Z,19.43
2022-08-22T17:05:49.881Z,19.49
2022-08-22T17:06:49.637Z,19.46
2022-08-22T17:07:50.131Z,19.45
2022-08-22T17:08:50.133Z,19.35
2022-08-22T17:09:50.120Z,19.25
2022-08-22T17:10:49.859Z,19.2
2022-08-22T17:11:49.868Z,19.17
2022-08-22T17:12:49.854Z,19.13
2022-08-22T17:13:49.847Z,19.16
2022-08-22T17:14:49.590Z,19.19
2022-08-22T17:15:49.842Z,19.16
2022-08-22T17:16:55.524Z,19.15
2022-08-22T17:17:49.837Z,19
2022-08-22T17:18:49.823Z,19.02
2022-08-22T17:19:51.271Z,19.02
2022-08-22T17:20:49.564Z,18.96
2022-08-22T17:21:58.158Z,18.93
2022-08-22T17:22:49.554Z,18.96
2022-08-22T17:23:49.802Z,18.9
2022-08-22T17:24:49.793Z,18.91
2022-08-22T17:25:50.054Z,18.9
2022-08-22T17:26:49.793Z,18.82
2022-08-22T17:27:49.530Z,18.81
2022-08-22T17:28:49.796Z,18.69